sensor_id;sensor_type;location;lat;lon;timestamp;pressure;altitude;pressure_sealevel;temperature;humidity
34658;BME280;20865;43.312;27.152;2024-01-30T00:01:57;102788.13;;;8.94;45.41
34658;BME280;20865;43.312;27.152;2024-01-30T00:04:25;102781.84;;;8.89;45.48
34658;BME280;20865;43.312;27.152;2024-01-30T00:06:57;102782.80;;;8.93;45.45
34658;BME280;20865;43.312;27.152;2024-01-30T00:09:20;102784.08;;;8.91;45.48
34658;BME280;20865;43.312;27.152;2024-01-30T00:11:54;102775.69;;;8.95;45.44
34658;BME280;20865;43.312;27.152;2024-01-30T00:14:23;102779.30;;;8.98;45.43
34658;BME280;20865;43.312;27.152;2024-01-30T00:17:05;102781.03;;;8.95;45.46
34658;BME280;20865;43.312;27.152;2024-01-30T00:19:22;102777.97;;;8.98;45.22
34658;BME280;20865;43.312;27.152;2024-01-30T00:22:08;102785.08;;;8.98;45.30
34658;BME280;20865;43.312;27.152;2024-01-30T00:24:22;102778.81;;;8.96;45.38
34658;BME280;20865;43.312;27.152;2024-01-30T00:26:52;102785.07;;;8.96;45.35
34658;BME280;20865;43.312;27.152;2024-01-30T00:29:23;102782.81;;;8.96;45.42
34658;BME280;20865;43.312;27.152;2024-01-30T00:31:55;102773.87;;;8.92;45.59
34658;BME280;20865;43.312;27.152;2024-01-30T00:34:28;102776.63;;;8.97;45.58
34658;BME280;20865;43.312;27.152;2024-01-30T00:36:56;102784.14;;;8.96;45.46
34658;BME280;20865;43.312;27.152;2024-01-30T00:39:36;102777.41;;;8.91;45.45
34658;BME280;20865;43.312;27.152;2024-01-30T00:42:17;102780.96;;;8.90;45.52
34658;BME280;20865;43.312;27.152;2024-01-30T00:44:41;102784.92;;;8.89;45.60
34658;BME280;20865;43.312;27.152;2024-01-30T00:47:10;102775.14;;;8.88;45.67
34658;BME280;20865;43.312;27.152;2024-01-30T00:49:42;102778.30;;;8.90;45.65
34658;BME280;20865;43.312;27.152;2024-01-30T00:52:13;102768.08;;;8.91;45.62
34658;BME280;20865;43.312;27.152;2024-01-30T00:54:40;102767.08;;;8.83;45.83
34658;BME280;20865;43.312;27.152;2024-01-30T00:57:17;102765.75;;;8.85;45.77
34658;BME280;20865;43.312;27.152;2024-01-30T00:59:43;102764.81;;;8.81;45.83
34658;BME280;20865;43.312;27.152;2024-01-30T01:02:17;102763.47;;;8.81;45.80
34658;BME280;20865;43.312;27.152;2024-01-30T01:04:54;102761.41;;;8.90;45.64
34658;BME280;20865;43.312;27.152;2024-01-30T01:07:33;102763.02;;;8.80;45.84
34658;BME280;20865;43.312;27.152;2024-01-30T01:09:53;102755.53;;;8.84;45.78
34658;BME280;20865;43.312;27.152;2024-01-30T01:12:23;102756.86;;;8.84;45.81
34658;BME280;20865;43.312;27.152;2024-01-30T01:15:05;102764.37;;;8.81;45.83
34658;BME280;20865;43.312;27.152;2024-01-30T01:17:25;102763.02;;;8.80;45.93
34658;BME280;20865;43.312;27.152;2024-01-30T01:19:57;102749.20;;;8.77;46.04
34658;BME280;20865;43.312;27.152;2024-01-30T01:22:29;102751.42;;;8.78;45.99
34658;BME280;20865;43.312;27.152;2024-01-30T01:25:03;102757.09;;;8.71;46.12
34658;BME280;20865;43.312;27.152;2024-01-30T01:27:36;102759.25;;;8.67;46.18
34658;BME280;20865;43.312;27.152;2024-01-30T01:30:18;102756.53;;;8.64;46.26
34658;BME280;20865;43.312;27.152;2024-01-30T01:32:42;102758.47;;;8.73;46.11
34658;BME280;20865;43.312;27.152;2024-01-30T01:40:26;102759.30;;;8.70;46.25
34658;BME280;20865;43.312;27.152;2024-01-30T01:42:57;102758.36;;;8.67;46.30
34658;BME280;20865;43.312;27.152;2024-01-30T01:45:39;102757.07;;;8.68;46.31
34658;BME280;20865;43.312;27.152;2024-01-30T01:47:58;102754.80;;;8.66;46.37
34658;BME280;20865;43.312;27.152;2024-01-30T01:50:30;102749.86;;;8.64;46.30
34658;BME280;20865;43.312;27.152;2024-01-30T01:53:01;102744.14;;;8.66;46.34
34658;BME280;20865;43.312;27.152;2024-01-30T01:55:35;102749.23;;;8.52;46.52
34658;BME280;20865;43.312;27.152;2024-01-30T01:58:16;102760.73;;;8.50;46.53
34658;BME280;20865;43.312;27.152;2024-01-30T02:00:39;102748.45;;;8.58;46.47
34658;BME280;20865;43.312;27.152;2024-01-30T02:03:16;102747.14;;;8.61;46.44
34658;BME280;20865;43.312;27.152;2024-01-30T02:05:45;102750.75;;;8.63;46.43
34658;BME280;20865;43.312;27.152;2024-01-30T02:08:22;102749.97;;;8.70;46.30
34658;BME280;20865;43.312;27.152;2024-01-30T02:13:16;102746.02;;;8.72;46.23
34658;BME280;20865;43.312;27.152;2024-01-30T02:15:54;102746.92;;;8.74;46.22
34658;BME280;20865;43.312;27.152;2024-01-30T02:18:15;102754.86;;;8.71;46.25
34658;BME280;20865;43.312;27.152;2024-01-30T02:20:56;102748.70;;;8.75;46.15
34658;BME280;20865;43.312;27.152;2024-01-30T02:23:24;102748.75;;;8.76;46.13
34658;BME280;20865;43.312;27.152;2024-01-30T02:26:02;102751.03;;;8.80;46.06
34658;BME280;20865;43.312;27.152;2024-01-30T02:28:32;102749.30;;;8.83;45.88
34658;BME280;20865;43.312;27.152;2024-01-30T02:31:02;102742.20;;;8.84;45.81
34658;BME280;20865;43.312;27.152;2024-01-30T02:33:35;102751.53;;;8.84;45.76
34658;BME280;20865;43.312;27.152;2024-01-30T02:36:11;102751.86;;;8.77;45.94
34658;BME280;20865;43.312;27.152;2024-01-30T02:38:51;102738.15;;;8.81;45.89
34658;BME280;20865;43.312;27.152;2024-01-30T02:41:08;102738.53;;;8.76;46.08
34658;BME280;20865;43.312;27.152;2024-01-30T02:43:38;102737.54;;;8.71;46.00
34658;BME280;20865;43.312;27.152;2024-01-30T02:46:13;102741.19;;;8.76;45.99
34658;BME280;20865;43.312;27.152;2024-01-30T02:51:25;102738.48;;;8.74;46.12
34658;BME280;20865;43.312;27.152;2024-01-30T02:53:57;102735.36;;;8.72;46.23
34658;BME280;20865;43.312;27.152;2024-01-30T02:56:25;102734.48;;;8.73;46.19
34658;BME280;20865;43.312;27.152;2024-01-30T02:58:52;102741.59;;;8.74;46.13
34658;BME280;20865;43.312;27.152;2024-01-30T03:01:23;102733.09;;;8.71;46.17
34658;BME280;20865;43.312;27.152;2024-01-30T03:03:56;102732.20;;;8.71;46.25
34658;BME280;20865;43.312;27.152;2024-01-30T03:06:30;102725.42;;;8.62;46.28
34658;BME280;20865;43.312;27.152;2024-01-30T03:09:17;102720.20;;;8.69;46.29
34658;BME280;20865;43.312;27.152;2024-01-30T03:19:15;102711.70;;;8.65;46.31
34658;BME280;20865;43.312;27.152;2024-01-30T03:21:50;102698.39;;;8.67;46.33
34658;BME280;20865;43.312;27.152;2024-01-30T03:26:54;102695.72;;;8.65;46.41
34658;BME280;20865;43.312;27.152;2024-01-30T03:32:02;102684.56;;;8.63;46.41
34658;BME280;20865;43.312;27.152;2024-01-30T03:34:41;102688.56;;;8.63;46.39
34658;BME280;20865;43.312;27.152;2024-01-30T03:37:07;102689.89;;;8.63;46.37
34658;BME280;20865;43.312;27.152;2024-01-30T03:39:46;102690.44;;;8.68;46.37
34658;BME280;20865;43.312;27.152;2024-01-30T03:42:24;102683.63;;;8.61;46.34
34658;BME280;20865;43.312;27.152;2024-01-30T03:44:57;102696.55;;;8.63;46.43
34658;BME280;20865;43.312;27.152;2024-01-30T03:47:22;102697.06;;;8.67;46.37
34658;BME280;20865;43.312;27.152;2024-01-30T03:49:54;102694.84;;;8.68;46.42
34658;BME280;20865;43.312;27.152;2024-01-30T03:54:58;102689.89;;;8.63;46.44
34658;BME280;20865;43.312;27.152;2024-01-30T03:57:28;102695.11;;;8.56;46.66
34658;BME280;20865;43.312;27.152;2024-01-30T04:00:10;102699.88;;;8.48;46.81
34658;BME280;20865;43.312;27.152;2024-01-30T04:02:37;102707.00;;;8.50;46.90
34658;BME280;20865;43.312;27.152;2024-01-30T04:05:11;102709.92;;;8.39;47.09
34658;BME280;20865;43.312;27.152;2024-01-30T04:07:37;102704.14;;;8.38;47.23
34658;BME280;20865;43.312;27.152;2024-01-30T04:10:09;102707.66;;;8.37;47.30
34658;BME280;20865;43.312;27.152;2024-01-30T04:12:37;102708.05;;;8.35;47.26
34658;BME280;20865;43.312;27.152;2024-01-30T04:15:11;102706.72;;;8.35;47.34
34658;BME280;20865;43.312;27.152;2024-01-30T04:20:34;102712.76;;;8.48;47.14
34658;BME280;20865;43.312;27.152;2024-01-30T04:22:56;102701.16;;;8.46;47.09
34658;BME280;20865;43.312;27.152;2024-01-30T04:25:27;102717.64;;;8.49;47.12
34658;BME280;20865;43.312;27.152;2024-01-30T04:28:00;102706.92;;;8.44;47.00
34658;BME280;20865;43.312;27.152;2024-01-30T04:30:32;102708.33;;;8.50;46.95
34658;BME280;20865;43.312;27.152;2024-01-30T04:33:05;102721.64;;;8.49;47.02
34658;BME280;20865;43.312;27.152;2024-01-30T04:35:38;102729.25;;;8.52;46.97
34658;BME280;20865;43.312;27.152;2024-01-30T04:38:33;102723.86;;;8.48;47.09
34658;BME280;20865;43.312;27.152;2024-01-30T04:43:24;102728.75;;;8.48;47.19
34658;BME280;20865;43.312;27.152;2024-01-30T04:45:59;102731.42;;;8.50;47.23
34658;BME280;20865;43.312;27.152;2024-01-30T04:51:09;102736.31;;;8.50;47.14
34658;BME280;20865;43.312;27.152;2024-01-30T04:53:43;102735.86;;;8.49;47.15
34658;BME280;20865;43.312;27.152;2024-01-30T04:56:05;102730.47;;;8.46;47.08
34658;BME280;20865;43.312;27.152;2024-01-30T04:58:45;102732.73;;;8.48;46.96
34658;BME280;20865;43.312;27.152;2024-01-30T05:01:16;102730.46;;;8.45;47.21
34658;BME280;20865;43.312;27.152;2024-01-30T05:06:26;102730.97;;;8.49;47.17
34658;BME280;20865;43.312;27.152;2024-01-30T05:08:57;102734.08;;;8.48;47.17
34658;BME280;20865;43.312;27.152;2024-01-30T05:11:37;102744.73;;;8.48;47.24
34658;BME280;20865;43.312;27.152;2024-01-30T05:14:02;102740.67;;;8.45;47.24
34658;BME280;20865;43.312;27.152;2024-01-30T05:16:39;102743.96;;;8.55;47.12
34658;BME280;20865;43.312;27.152;2024-01-30T05:19:07;102738.25;;;8.59;47.00
34658;BME280;20865;43.312;27.152;2024-01-30T05:21:37;102728.93;;;8.61;47.01
34658;BME280;20865;43.312;27.152;2024-01-30T05:24:12;102741.03;;;8.67;46.99
34658;BME280;20865;43.312;27.152;2024-01-30T05:26:52;102731.64;;;8.62;47.01
34658;BME280;20865;43.312;27.152;2024-01-30T05:29:25;102734.20;;;8.56;47.02
34658;BME280;20865;43.312;27.152;2024-01-30T05:32:07;102738.58;;;8.52;47.05
34658;BME280;20865;43.312;27.152;2024-01-30T05:37:01;102761.67;;;8.52;47.29
34658;BME280;20865;43.312;27.152;2024-01-30T05:39:42;102749.23;;;8.52;47.16
34658;BME280;20865;43.312;27.152;2024-01-30T05:42:24;102754.58;;;8.54;47.23
34658;BME280;20865;43.312;27.152;2024-01-30T05:44:49;102760.34;;;8.53;47.18
34658;BME280;20865;43.312;27.152;2024-01-30T05:47:29;102763.44;;;8.51;47.23
34658;BME280;20865;43.312;27.152;2024-01-30T05:49:50;102767.88;;;8.51;47.19
34658;BME280;20865;43.312;27.152;2024-01-30T05:52:17;102777.66;;;8.53;47.17
34658;BME280;20865;43.312;27.152;2024-01-30T05:54:45;102771.38;;;8.48;47.16
34658;BME280;20865;43.312;27.152;2024-01-30T05:57:13;102774.08;;;8.28;47.64
34658;BME280;20865;43.312;27.152;2024-01-30T05:59:40;102781.09;;;8.46;47.35
34658;BME280;20865;43.312;27.152;2024-01-30T06:02:08;102783.80;;;8.48;47.30
34658;BME280;20865;43.312;27.152;2024-01-30T06:04:35;102781.60;;;8.50;47.28
34658;BME280;20865;43.312;27.152;2024-01-30T06:07:03;102786.66;;;8.58;47.17
34658;BME280;20865;43.312;27.152;2024-01-30T06:09:32;102789.37;;;8.62;46.95
34658;BME280;20865;43.312;27.152;2024-01-30T06:12:00;102783.62;;;8.64;46.89
34658;BME280;20865;43.312;27.152;2024-01-30T06:14:27;102794.34;;;8.67;46.86
34658;BME280;20865;43.312;27.152;2024-01-30T06:16:55;102783.23;;;8.67;46.84
34658;BME280;20865;43.312;27.152;2024-01-30T06:19:22;102788.12;;;8.68;46.86
34658;BME280;20865;43.312;27.152;2024-01-30T06:21:50;102790.89;;;8.72;46.81
34658;BME280;20865;43.312;27.152;2024-01-30T06:24:18;102793.40;;;8.65;46.92
34658;BME280;20865;43.312;27.152;2024-01-30T06:26:45;102789.56;;;8.72;46.75
34658;BME280;20865;43.312;27.152;2024-01-30T06:29:13;102797.52;;;8.71;46.81
34658;BME280;20865;43.312;27.152;2024-01-30T06:31:41;102787.73;;;8.70;46.82
34658;BME280;20865;43.312;27.152;2024-01-30T06:34:10;102774.80;;;8.68;46.95
34658;BME280;20865;43.312;27.152;2024-01-30T06:36:38;102770.90;;;8.72;46.77
34658;BME280;20865;43.312;27.152;2024-01-30T06:39:06;102778.67;;;8.60;46.99
34658;BME280;20865;43.312;27.152;2024-01-30T06:41:34;102781.46;;;8.68;46.63
34658;BME280;20865;43.312;27.152;2024-01-30T06:44:05;102781.45;;;8.66;46.73
34658;BME280;20865;43.312;27.152;2024-01-30T06:46:36;102789.00;;;8.67;46.75
34658;BME280;20865;43.312;27.152;2024-01-30T06:49:04;102790.41;;;8.71;46.69
34658;BME280;20865;43.312;27.152;2024-01-30T06:51:32;102793.64;;;8.52;46.93
34658;BME280;20865;43.312;27.152;2024-01-30T06:53:59;102792.61;;;8.69;46.70
34658;BME280;20865;43.312;27.152;2024-01-30T06:56:27;102792.23;;;8.47;47.34
34658;BME280;20865;43.312;27.152;2024-01-30T06:58:55;102800.98;;;8.65;46.73
34658;BME280;20865;43.312;27.152;2024-01-30T07:01:30;102802.65;;;8.58;46.72
34658;BME280;20865;43.312;27.152;2024-01-30T07:03:59;102801.45;;;8.68;46.64
34658;BME280;20865;43.312;27.152;2024-01-30T07:06:26;102807.78;;;8.73;46.59
34658;BME280;20865;43.312;27.152;2024-01-30T07:08:54;102810.89;;;8.74;46.56
34658;BME280;20865;43.312;27.152;2024-01-30T07:11:22;102821.06;;;8.71;46.71
34658;BME280;20865;43.312;27.152;2024-01-30T07:13:53;102831.70;;;8.70;46.82
34658;BME280;20865;43.312;27.152;2024-01-30T07:16:21;102825.94;;;8.70;46.89
34658;BME280;20865;43.312;27.152;2024-01-30T07:18:49;102817.04;;;8.68;46.91
34658;BME280;20865;43.312;27.152;2024-01-30T07:21:17;102818.39;;;8.71;46.86
34658;BME280;20865;43.312;27.152;2024-01-30T07:23:44;102812.68;;;8.75;46.81
34658;BME280;20865;43.312;27.152;2024-01-30T07:26:12;102803.41;;;8.78;46.75
34658;BME280;20865;43.312;27.152;2024-01-30T07:28:39;102811.78;;;8.74;46.81
34658;BME280;20865;43.312;27.152;2024-01-30T07:31:07;102799.84;;;8.76;46.86
34658;BME280;20865;43.312;27.152;2024-01-30T07:33:34;102799.33;;;8.72;46.98
34658;BME280;20865;43.312;27.152;2024-01-30T07:36:02;102792.78;;;8.79;46.75
34658;BME280;20865;43.312;27.152;2024-01-30T07:38:34;102811.27;;;8.69;46.85
34658;BME280;20865;43.312;27.152;2024-01-30T07:41:01;102814.33;;;8.67;47.03
34658;BME280;20865;43.312;27.152;2024-01-30T07:43:29;102819.53;;;8.59;47.24
34658;BME280;20865;43.312;27.152;2024-01-30T07:45:56;102807.09;;;8.59;47.16
34658;BME280;20865;43.312;27.152;2024-01-30T07:48:24;102814.64;;;8.58;47.11
34658;BME280;20865;43.312;27.152;2024-01-30T07:50:52;102813.76;;;8.59;47.22
34658;BME280;20865;43.312;27.152;2024-01-30T07:53:20;102807.59;;;8.62;47.23
34658;BME280;20865;43.312;27.152;2024-01-30T07:55:47;102811.59;;;8.62;47.19
34658;BME280;20865;43.312;27.152;2024-01-30T07:58:16;102815.55;;;8.61;47.31
34658;BME280;20865;43.312;27.152;2024-01-30T08:00:43;102810.71;;;8.63;47.33
34658;BME280;20865;43.312;27.152;2024-01-30T08:03:11;102819.59;;;8.62;47.36
34658;BME280;20865;43.312;27.152;2024-01-30T08:05:39;102811.98;;;8.60;47.25
34658;BME280;20865;43.312;27.152;2024-01-30T08:08:07;102815.28;;;8.70;47.15
34658;BME280;20865;43.312;27.152;2024-01-30T08:10:34;102820.44;;;8.61;47.30
34658;BME280;20865;43.312;27.152;2024-01-30T08:13:02;102820.05;;;8.65;47.40
34658;BME280;20865;43.312;27.152;2024-01-30T08:15:29;102824.98;;;8.65;47.38
34658;BME280;20865;43.312;27.152;2024-01-30T08:17:57;102820.09;;;8.66;47.29
34658;BME280;20865;43.312;27.152;2024-01-30T08:20:25;102821.50;;;8.71;47.13
34658;BME280;20865;43.312;27.152;2024-01-30T08:22:53;102829.10;;;8.73;46.99
34658;BME280;20865;43.312;27.152;2024-01-30T08:25:21;102819.01;;;8.80;46.96
34658;BME280;20865;43.312;27.152;2024-01-30T08:27:48;102822.55;;;8.79;46.81
34658;BME280;20865;43.312;27.152;2024-01-30T08:30:16;102819.56;;;8.86;46.79
34658;BME280;20865;43.312;27.152;2024-01-30T08:32:43;102820.52;;;8.91;46.86
34658;BME280;20865;43.312;27.152;2024-01-30T08:35:11;102813.48;;;8.96;46.50
34658;BME280;20865;43.312;27.152;2024-01-30T08:37:40;102823.75;;;8.99;46.62
34658;BME280;20865;43.312;27.152;2024-01-30T08:40:08;102823.37;;;9.03;46.40
34658;BME280;20865;43.312;27.152;2024-01-30T08:42:36;102826.20;;;9.12;46.28
34658;BME280;20865;43.312;27.152;2024-01-30T08:45:05;102823.97;;;9.12;46.36
34658;BME280;20865;43.312;27.152;2024-01-30T08:47:33;102824.03;;;9.16;46.06
34658;BME280;20865;43.312;27.152;2024-01-30T08:50:00;102825.02;;;9.23;46.11
34658;BME280;20865;43.312;27.152;2024-01-30T08:52:28;102818.86;;;9.27;45.93
34658;BME280;20865;43.312;27.152;2024-01-30T08:54:56;102811.39;;;9.31;45.65
34658;BME280;20865;43.312;27.152;2024-01-30T08:57:23;102814.46;;;9.30;45.50
34658;BME280;20865;43.312;27.152;2024-01-30T08:59:52;102816.73;;;9.34;45.05
34658;BME280;20865;43.312;27.152;2024-01-30T09:02:20;102815.84;;;9.34;44.88
34658;BME280;20865;43.312;27.152;2024-01-30T09:04:47;102822.06;;;9.33;45.08
34658;BME280;20865;43.312;27.152;2024-01-30T09:07:15;102826.45;;;9.27;45.04
34658;BME280;20865;43.312;27.152;2024-01-30T09:09:43;102826.51;;;9.32;45.02
34658;BME280;20865;43.312;27.152;2024-01-30T09:12:11;102824.83;;;9.39;45.12
34658;BME280;20865;43.312;27.152;2024-01-30T09:14:40;102821.67;;;9.36;45.01
34658;BME280;20865;43.312;27.152;2024-01-30T09:17:08;102823.50;;;9.40;45.09
34658;BME280;20865;43.312;27.152;2024-01-30T09:19:35;102819.06;;;9.41;45.03
34658;BME280;20865;43.312;27.152;2024-01-30T09:22:03;102815.59;;;9.46;45.04
34658;BME280;20865;43.312;27.152;2024-01-30T09:24:31;102804.12;;;9.52;44.64
34658;BME280;20865;43.312;27.152;2024-01-30T09:26:58;102808.19;;;9.57;44.50
34658;BME280;20865;43.312;27.152;2024-01-30T09:29:26;102797.16;;;9.63;44.53
34658;BME280;20865;43.312;27.152;2024-01-30T09:31:53;102794.53;;;9.68;44.37
34658;BME280;20865;43.312;27.152;2024-01-30T09:34:21;102792.75;;;9.67;44.49
34658;BME280;20865;43.312;27.152;2024-01-30T09:36:48;102786.96;;;9.66;44.27
34658;BME280;20865;43.312;27.152;2024-01-30T09:39:16;102782.47;;;9.65;43.93
34658;BME280;20865;43.312;27.152;2024-01-30T09:41:53;102786.04;;;9.65;44.00
34658;BME280;20865;43.312;27.152;2024-01-30T09:44:20;102779.89;;;9.71;44.15
34658;BME280;20865;43.312;27.152;2024-01-30T09:46:48;102777.58;;;9.64;43.92
34658;BME280;20865;43.312;27.152;2024-01-30T09:49:15;102777.22;;;9.69;44.09
34658;BME280;20865;43.312;27.152;2024-01-30T09:51:45;102781.63;;;9.67;44.09
34658;BME280;20865;43.312;27.152;2024-01-30T09:54:14;102777.18;;;9.68;44.38
34658;BME280;20865;43.312;27.152;2024-01-30T09:56:42;102769.22;;;9.71;43.68
34658;BME280;20865;43.312;27.152;2024-01-30T09:59:10;102759.02;;;9.73;43.85
34658;BME280;20865;43.312;27.152;2024-01-30T10:01:38;102757.81;;;9.84;43.15
34658;BME280;20865;43.312;27.152;2024-01-30T10:04:06;102756.44;;;9.81;43.27
34658;BME280;20865;43.312;27.152;2024-01-30T10:06:34;102750.20;;;9.82;43.24
34658;BME280;20865;43.312;27.152;2024-01-30T10:09:02;102747.62;;;9.88;43.37
34658;BME280;20865;43.312;27.152;2024-01-30T10:11:31;102742.28;;;9.90;42.88
34658;BME280;20865;43.312;27.152;2024-01-30T10:13:59;102745.99;;;10.01;43.28
34658;BME280;20865;43.312;27.152;2024-01-30T10:16:27;102745.52;;;10.00;43.45
34658;BME280;20865;43.312;27.152;2024-01-30T10:18:54;102740.20;;;10.01;43.14
34658;BME280;20865;43.312;27.152;2024-01-30T10:21:22;102732.48;;;9.87;43.01
34658;BME280;20865;43.312;27.152;2024-01-30T10:23:51;102742.88;;;10.01;43.43
34658;BME280;20865;43.312;27.152;2024-01-30T10:26:18;102728.11;;;9.95;43.30
34658;BME280;20865;43.312;27.152;2024-01-30T10:28:47;102731.71;;;10.00;42.34
34658;BME280;20865;43.312;27.152;2024-01-30T10:31:19;102695.92;;;9.80;42.28
34658;BME280;20865;43.312;27.152;2024-01-30T10:33:46;102730.74;;;9.91;42.52
34658;BME280;20865;43.312;27.152;2024-01-30T10:36:14;102734.79;;;9.94;42.06
34658;BME280;20865;43.312;27.152;2024-01-30T10:38:43;102734.38;;;10.00;42.75
34658;BME280;20865;43.312;27.152;2024-01-30T10:41:13;102742.39;;;9.97;41.96
34658;BME280;20865;43.312;27.152;2024-01-30T10:43:45;102730.34;;;9.94;42.03
34658;BME280;20865;43.312;27.152;2024-01-30T10:46:20;102726.89;;;10.06;41.94
34658;BME280;20865;43.312;27.152;2024-01-30T10:48:57;102735.72;;;9.97;41.77
34658;BME280;20865;43.312;27.152;2024-01-30T10:51:28;102724.63;;;10.02;41.99
34658;BME280;20865;43.312;27.152;2024-01-30T10:53:56;102733.19;;;10.13;42.55
34658;BME280;20865;43.312;27.152;2024-01-30T10:56:25;102735.75;;;10.03;42.35
34658;BME280;20865;43.312;27.152;2024-01-30T10:58:53;102730.38;;;9.99;43.06
34658;BME280;20865;43.312;27.152;2024-01-30T11:01:23;102739.05;;;10.20;42.79
34658;BME280;20865;43.312;27.152;2024-01-30T11:03:52;102735.05;;;10.21;42.77
34658;BME280;20865;43.312;27.152;2024-01-30T11:06:29;102730.15;;;10.21;42.95
34658;BME280;20865;43.312;27.152;2024-01-30T11:09:03;102735.38;;;10.09;43.04
34658;BME280;20865;43.312;27.152;2024-01-30T11:11:46;102733.81;;;10.28;42.81
34658;BME280;20865;43.312;27.152;2024-01-30T11:14:02;102722.71;;;10.30;42.71
34658;BME280;20865;43.312;27.152;2024-01-30T11:16:31;102726.62;;;10.25;42.83
34658;BME280;20865;43.312;27.152;2024-01-30T11:19:01;102721.24;;;10.20;42.64
34658;BME280;20865;43.312;27.152;2024-01-30T11:21:29;102725.80;;;10.28;42.73
34658;BME280;20865;43.312;27.152;2024-01-30T11:23:57;102724.94;;;10.30;42.92
34658;BME280;20865;43.312;27.152;2024-01-30T11:26:29;102718.32;;;10.36;42.60
34658;BME280;20865;43.312;27.152;2024-01-30T11:28:58;102720.92;;;10.29;42.66
34658;BME280;20865;43.312;27.152;2024-01-30T11:31:25;102714.15;;;10.24;42.15
34658;BME280;20865;43.312;27.152;2024-01-30T11:33:53;102720.83;;;10.24;42.06
34658;BME280;20865;43.312;27.152;2024-01-30T11:36:25;102709.66;;;10.20;42.57
34658;BME280;20865;43.312;27.152;2024-01-30T11:38:53;102708.88;;;10.25;43.02
34658;BME280;20865;43.312;27.152;2024-01-30T11:41:22;102711.09;;;10.28;42.83
34658;BME280;20865;43.312;27.152;2024-01-30T11:43:54;102708.33;;;10.20;42.51
34658;BME280;20865;43.312;27.152;2024-01-30T11:46:24;102709.66;;;10.20;42.42
34658;BME280;20865;43.312;27.152;2024-01-30T11:48:53;102705.21;;;10.20;42.80
34658;BME280;20865;43.312;27.152;2024-01-30T11:51:20;102709.80;;;10.31;42.62
34658;BME280;20865;43.312;27.152;2024-01-30T11:53:49;102697.80;;;10.35;42.31
34658;BME280;20865;43.312;27.152;2024-01-30T11:56:17;102698.75;;;10.40;42.39
34658;BME280;20865;43.312;27.152;2024-01-30T11:58:45;102698.81;;;10.46;42.57
34658;BME280;20865;43.312;27.152;2024-01-30T12:01:13;102696.94;;;10.36;42.43
34658;BME280;20865;43.312;27.152;2024-01-30T12:03:40;102698.34;;;10.44;42.09
34658;BME280;20865;43.312;27.152;2024-01-30T12:06:08;102690.31;;;10.44;42.35
34658;BME280;20865;43.312;27.152;2024-01-30T12:08:35;102691.20;;;10.44;42.13
34658;BME280;20865;43.312;27.152;2024-01-30T12:11:03;102691.18;;;10.41;42.05
34658;BME280;20865;43.312;27.152;2024-01-30T12:13:32;102693.02;;;10.47;41.66
34658;BME280;20865;43.312;27.152;2024-01-30T12:16:00;102689.40;;;10.42;41.68
34658;BME280;20865;43.312;27.152;2024-01-30T12:18:28;102685.00;;;10.47;41.65
34658;BME280;20865;43.312;27.152;2024-01-30T12:21:00;102673.08;;;10.61;41.84
34658;BME280;20865;43.312;27.152;2024-01-30T12:23:28;102674.39;;;10.59;41.72
34658;BME280;20865;43.312;27.152;2024-01-30T12:25:56;102672.61;;;10.58;41.92
34658;BME280;20865;43.312;27.152;2024-01-30T12:28:24;102672.23;;;10.68;41.73
34658;BME280;20865;43.312;27.152;2024-01-30T12:30:56;102668.25;;;10.71;41.78
34658;BME280;20865;43.312;27.152;2024-01-30T12:33:26;102669.59;;;10.71;41.75
34658;BME280;20865;43.312;27.152;2024-01-30T12:35:55;102658.91;;;10.76;41.32
34658;BME280;20865;43.312;27.152;2024-01-30T12:38:24;102656.64;;;10.69;41.22
34658;BME280;20865;43.312;27.152;2024-01-30T12:40:55;102656.68;;;10.77;41.06
34658;BME280;20865;43.312;27.152;2024-01-30T12:43:28;102659.83;;;10.79;41.01
34658;BME280;20865;43.312;27.152;2024-01-30T12:45:53;102661.14;;;10.76;40.79
34658;BME280;20865;43.312;27.152;2024-01-30T12:48:21;102662.52;;;10.82;40.93
34658;BME280;20865;43.312;27.152;2024-01-30T12:50:48;102655.38;;;10.78;41.07
34658;BME280;20865;43.312;27.152;2024-01-30T12:53:16;102656.96;;;10.52;41.35
34658;BME280;20865;43.312;27.152;2024-01-30T12:55:44;102657.33;;;10.42;41.58
34658;BME280;20865;43.312;27.152;2024-01-30T12:58:11;102660.45;;;10.41;41.62
34658;BME280;20865;43.312;27.152;2024-01-30T13:00:40;102662.23;;;10.41;41.93
34658;BME280;20865;43.312;27.152;2024-01-30T13:03:09;102662.64;;;10.36;41.56
34658;BME280;20865;43.312;27.152;2024-01-30T13:05:37;102663.48;;;10.30;41.67
34658;BME280;20865;43.312;27.152;2024-01-30T13:08:07;102667.93;;;10.31;41.83
34658;BME280;20865;43.312;27.152;2024-01-30T13:10:34;102652.79;;;10.32;41.73
34658;BME280;20865;43.312;27.152;2024-01-30T13:13:02;102659.05;;;10.34;41.99
34658;BME280;20865;43.312;27.152;2024-01-30T13:15:29;102656.80;;;10.30;41.95
34658;BME280;20865;43.312;27.152;2024-01-30T13:17:57;102658.13;;;10.32;41.88
34658;BME280;20865;43.312;27.152;2024-01-30T13:20:24;102649.73;;;10.37;41.93
34658;BME280;20865;43.312;27.152;2024-01-30T13:22:52;102651.42;;;10.27;41.83
34658;BME280;20865;43.312;27.152;2024-01-30T13:25:20;102656.39;;;10.32;42.00
34658;BME280;20865;43.312;27.152;2024-01-30T13:27:47;102655.49;;;10.35;42.26
34658;BME280;20865;43.312;27.152;2024-01-30T13:30:15;102654.16;;;10.33;41.93
34658;BME280;20865;43.312;27.152;2024-01-30T13:32:42;102649.25;;;10.34;42.08
34658;BME280;20865;43.312;27.152;2024-01-30T13:35:10;102648.36;;;10.35;42.01
34658;BME280;20865;43.312;27.152;2024-01-30T13:37:38;102634.16;;;10.41;41.87
34658;BME280;20865;43.312;27.152;2024-01-30T13:40:06;102639.48;;;10.38;41.79